»·PEaware :: UAL722 KSAN-KBUR

UAL722 :: KSAN-KBUR

FLIGHT INFORMATION

Flight Status: Arrived
Operator:
United Airlines
More flights by this operator :: More flights under this callsign
Pilot: Mike S. (2156)
Aircraft: Unknown
(/L)
More flights by this aircraft type
Origin: KSAN San Diego Intl-Lindbergh
United States
Destination: KBUR Bob Hope-Burbank
United States
More flights between these airports :: More routes between these airports
Route: +CWARD2 LAX SILEX
File this flight plan on PilotEdge
Remarks:
Altitude:
(Current/Filed)
10,000ft
Speed:
(Current/Filed)
375kts
Departed: 20-Jul-20 01:20 PM
Arrived: 20-Jul-20 01:50 PM
Distance/Time
Traveled:
105nm/0:30
Distance/Time
To Go:
Arrived

Flight Plot

Page will automatically refresh every two minutes.


Map Options




Map Legend


Flown Route
Filed Route
Departure Airport
Arrival Airport
Navaid (VOR, NDB)
Fix

Horizontal Profiles

Position Reports

Time Latitude Longitude Heading Altitude Ground
Speed
20-Jul-20 13:01 32.733947 -117.200444 255 24ft 0kts
20-Jul-20 13:02 32.733947 -117.200444 255 24ft 0kts
20-Jul-20 13:03 32.733947 -117.200444 255 24ft 0kts
20-Jul-20 13:04 32.733947 -117.200444 255 24ft 0kts
20-Jul-20 13:05 32.733947 -117.200444 255 24ft 0kts
20-Jul-20 13:06 32.733947 -117.200444 255 24ft 0kts
20-Jul-20 13:07 32.733947 -117.200444 255 24ft 0kts
20-Jul-20 13:08 32.733947 -117.200444 255 24ft 0kts
20-Jul-20 13:09 32.733947 -117.200444 255 24ft 0kts
20-Jul-20 13:10 32.733947 -117.200444 255 24ft 0kts
20-Jul-20 13:11 32.734003 -117.200195 255 24ft 3kts
20-Jul-20 13:12 32.733646 -117.199659 344 24ft 0kts
20-Jul-20 13:13 32.733646 -117.199659 344 24ft 0kts
20-Jul-20 13:14 32.734748 -117.199133 88 24ft 16kts
20-Jul-20 13:15 32.732701 -117.190474 106 24ft 31kts
20-Jul-20 13:16 32.730397 -117.180998 105 24ft 25kts
20-Jul-20 13:17 32.729498 -117.176970 81 24ft 0kts
20-Jul-20 13:18 32.730269 -117.176089 284 24ft 4kts
20-Jul-20 13:19 32.740593 -117.213850 300 1236ft 190kts
20-Jul-20 13:20 32.773027 -117.271746 301 4542ft 220kts
20-Jul-20 13:21 32.812205 -117.338664 307 7449ft 266kts
20-Jul-20 13:22 32.858874 -117.410398 307 9793ft 285kts
20-Jul-20 13:23 32.914530 -117.497146 307 9987ft 368kts
20-Jul-20 13:24 32.976678 -117.593915 307 9981ft 370kts
20-Jul-20 13:25 33.039499 -117.691888 307 9983ft 370kts
20-Jul-20 13:26 33.111084 -117.778795 320 9986ft 372kts
20-Jul-20 13:27 33.191497 -117.857390 332 9973ft 371kts
20-Jul-20 13:28 33.292110 -117.886100 346 10007ft 373kts
20-Jul-20 13:29 33.388683 -117.915188 324 9900ft 334kts
20-Jul-20 13:30 33.457256 -117.978986 321 8809ft 284kts
20-Jul-20 13:31 33.518448 -118.037087 320 7748ft 276kts
20-Jul-20 13:32 33.577717 -118.093499 320 6678ft 268kts
20-Jul-20 13:33 33.635035 -118.148061 320 6022ft 261kts
20-Jul-20 13:34 33.692393 -118.202685 320 6004ft 263kts
20-Jul-20 13:35 33.748663 -118.256290 320 6003ft 264kts
20-Jul-20 13:36 33.805743 -118.310685 320 6010ft 264kts
20-Jul-20 13:37 33.863841 -118.366053 320 6021ft 265kts
20-Jul-20 13:38 33.921755 -118.421263 320 6024ft 265kts
20-Jul-20 13:39 33.979884 -118.473941 322 5210ft 241kts
20-Jul-20 13:40 34.030503 -118.518909 322 5027ft 224kts
20-Jul-20 13:41 34.080631 -118.563591 322 5021ft 224kts
20-Jul-20 13:42 34.130854 -118.608321 323 4898ft 228kts
20-Jul-20 13:43 34.180684 -118.644908 9 4014ft 188kts
20-Jul-20 13:44 34.202708 -118.593290 94 3630ft 190kts
20-Jul-20 13:45 34.200080 -118.531134 90 3352ft 180kts
20-Jul-20 13:46 34.199301 -118.471692 91 2427ft 175kts
20-Jul-20 13:47 34.198553 -118.416046 92 1528ft 153kts
20-Jul-20 13:48 34.197891 -118.366415 93 749ft 140kts
20-Jul-20 13:49 34.197003 -118.352834 179 730ft 0kts
20-Jul-20 13:50 34.197003 -118.352834 179 730ft 0kts

Navigation Log

Ident Type
Flight plan parsing failed, navigation log unavailable